Flight Track Log - Related Links

Times and Time Zones

All times are in EDT time to prevent confusion due to time zone crossing. See the JUS327 flight status page for this flight to view local times or setup timezone preferences in your user account.

Time Position Orientation Groundspeed Altitude Reporting Facility
EDT Latitude Longitude Course Direction KTS MPH feet Rate Location/Type
Thu 09:18:56 AM 34.7347 -92.2222 68° East 145 167 900  Level Memphis Center
Thu 09:19:45 AM 34.7500 -92.1769 68° East 202 232 3,000 2,379 Climbing Memphis Center
Thu 09:20:52 AM 34.7239 -92.1183 118° Southeast 228 262 5,500 2,565 Climbing Memphis Center
Thu 09:21:56 AM 34.6403 -92.1292 186° South 281 323 8,600 3,000 Climbing Memphis Center
Thu 09:22:56 AM 34.5831 -92.1911 222° Southwest 273 314 11,700 2,750 Climbing Memphis Center
Thu 09:23:56 AM 34.5172 -92.2603 221° Southwest 284 327 14,100 2,550 Climbing Memphis Center
Thu 09:24:56 AM 34.4453 -92.3217 215° Southwest 305 351 16,800 2,150 Climbing Memphis Center
Thu 09:25:56 AM 34.3633 -92.3650 204° Southwest 315 362 18,400 1,650 Climbing Memphis Center
Thu 09:26:56 AM 34.2931 -92.4389 221° Southwest 328 377 20,100 1,600 Climbing Memphis Center
Thu 09:27:56 AM 34.2131 -92.4947 210° Southwest 335 386 21,600 1,350 Climbing Memphis Center
Thu 09:28:56 AM 34.1306 -92.5478 208° Southwest 340 391 22,800 1,200 Climbing Memphis Center
Thu 09:29:56 AM 34.0481 -92.6083 211° Southwest 345 397 24,000 1,250 Climbing Memphis Center
Thu 09:30:56 AM 33.9658 -92.6664 210° Southwest 345 397 25,300 942 Climbing Memphis Center
Thu 09:33:07 AM 33.7736 -92.8033 211° Southwest 358 412 27,000 911 Climbing Fort Worth Center
Thu 09:34:07 AM 33.6861 -92.8631 210° Southwest 369 425 28,200 1,300 Climbing Fort Worth Center
Thu 09:35:07 AM 33.5967 -92.9275 211° Southwest 369 425 29,600 900 Climbing Fort Worth Center
Thu 09:36:07 AM 33.5047 -92.9869 208° Southwest 374 430 30,000 200 Climbing Fort Worth Center
Thu 09:37:07 AM 33.4175 -93.0558 213° Southwest 374 430 30,000  Level Fort Worth Center
Thu 09:38:07 AM 33.3414 -93.1467 225° Southwest 384 442 30,000 -200 Level Fort Worth Center
Thu 09:39:07 AM 33.2733 -93.2394 229° Southwest 384 442 29,600 -600 Descending Fort Worth Center
Thu 09:40:07 AM 33.2056 -93.3294 228° Southwest 374 430 28,800 -800 Descending Fort Worth Center
Thu 09:41:07 AM 33.1417 -93.4242 231° Southwest 369 425 28,000 -400 Descending Fort Worth Center
Thu 09:42:07 AM 33.0897 -93.4983 230° Southwest 369 425 28,000  Level Fort Worth Center
Thu 09:43:07 AM 33.0200 -93.6081 233° Southwest 369 425 28,000  Level Fort Worth Center
Thu 09:44:07 AM 32.9542 -93.7050 231° Southwest 374 430 28,000  Level Fort Worth Center
Thu 09:45:07 AM 32.8903 -93.8039 232° Southwest 379 436 28,000  Level Fort Worth Center
Thu 09:46:07 AM 32.8261 -93.9031 232° Southwest 384 442 28,000  Level Fort Worth Center
Thu 09:47:07 AM 32.7600 -94.0019 232° Southwest 384 442 28,000  Level Fort Worth Center
Thu 09:48:07 AM 32.6958 -94.1031 233° Southwest 384 442 28,000  Level Fort Worth Center
Thu 09:49:07 AM 32.6294 -94.1944 229° Southwest 379 436 28,000  Level Fort Worth Center
Thu 09:50:07 AM 32.5544 -94.2808 224° Southwest 379 436 28,000  Level Fort Worth Center
Thu 09:51:07 AM 32.4792 -94.3672 224° Southwest 379 436 28,000  Level Fort Worth Center
Thu 09:52:07 AM 32.3997 -94.4461 220° Southwest 379 436 28,000  Level Fort Worth Center
Thu 09:53:07 AM 32.3178 -94.5175 216° Southwest 379 436 28,000  Level Fort Worth Center
Thu 09:54:07 AM 32.2383 -94.5939 219° Southwest 373 429 28,000  Level Fort Worth Center
Thu 09:55:07 AM 32.1628 -94.6794 224° Southwest 373 429 28,000  Level Fort Worth Center
Thu 09:56:07 AM 32.0872 -94.7578 221° Southwest 373 429 28,000  Level Fort Worth Center
Thu 09:57:07 AM 32.0053 -94.8311 217° Southwest 373 429 28,000  Level Fort Worth Center
Thu 09:58:44 AM 31.8772 -94.9481 218° Southwest 373 429 28,000  Level Houston Center
Thu 09:59:45 AM 31.7783 -95.0378 218° Southwest 375 432 28,000  Level Houston Center
Thu 10:00:47 AM 31.6953 -95.1147 218° Southwest 380 437 28,000 339 Level Houston Center
Thu 10:01:49 AM 31.6125 -95.1922 219° Southwest 383 441 28,700 1,403 Climbing Houston Center
Thu 10:02:51 AM 31.5322 -95.2711 220° Southwest 380 437 30,900 1,597 Climbing Houston Center
Thu 10:03:53 AM 31.4556 -95.3442 219° Southwest 362 417 32,000 537 Climbing Houston Center
Thu 10:04:54 AM 31.3756 -95.4161 218° Southwest 363 418 32,000  Level Houston Center
Thu 10:05:56 AM 31.2792 -95.5039 218° Southwest 367 422 32,000  Level Houston Center
Thu 10:06:58 AM 31.1997 -95.5761 218° Southwest 364 419 32,000  Level Houston Center
Thu 10:08:00 AM 31.1158 -95.6433 214° Southwest 366 421 32,000 -49 Level Houston Center
Thu 10:09:01 AM 31.0225 -95.6856 201° Southwest 360 414 31,900  Descending Houston Center
Thu 10:10:03 AM 30.9233 -95.7100 192° South 365 420 32,000 48 Climbing Houston Center
Thu 10:11:05 AM 30.8244 -95.7431 196° South 368 423 32,000 -48 Level Houston Center
Thu 10:12:07 AM 30.7289 -95.7825 200° South 366 421 31,900  Descending Houston Center
Thu 10:13:08 AM 30.6256 -95.8233 199° South 368 423 32,000 49 Climbing Houston Center
Thu 10:14:10 AM 30.5283 -95.8592 198° South 367 422 32,000 -48 Level Houston Center
Thu 10:15:12 AM 30.4308 -95.8914 196° South 367 422 31,900  Descending Houston Center
Thu 10:16:14 AM 30.3139 -95.9342 198° South 368 423 32,000  Climbing Houston Center
Thu 10:17:16 AM 30.2175 -95.9697 198° South 366 421 31,900  Descending Houston Center
Thu 10:18:17 AM 30.1208 -96.0064 198° South 367 422 32,000  Climbing Houston Center
Thu 10:19:19 AM 30.0283 -96.0375 196° South 369 425 31,900 -49 Descending Houston Center
Thu 10:20:20 AM 29.9108 -96.0786 197° South 367 422 31,900  Level Houston Center
Thu 10:21:22 AM 29.8142 -96.1122 197° South 363 418 31,900  Level Houston Center
Thu 10:22:24 AM 29.7164 -96.1464 197° South 365 420 31,900  Level Houston Center
Thu 10:23:26 AM 29.6192 -96.1808 197° South 363 418 31,900  Level Houston Center
Thu 10:24:28 AM 29.5217 -96.2150 197° South 364 419 31,900  Level Houston Center
Thu 10:25:29 AM 29.4236 -96.2483 196° South 365 420 31,900  Level Houston Center
Thu 10:26:31 AM 29.3267 -96.2822 197° South 363 418 31,900  Level Houston Center
Thu 10:27:33 AM 29.2300 -96.3156 197° South 362 417 31,900  Level Houston Center
Thu 10:28:35 AM 29.1119 -96.3556 196° South 365 420 31,900  Level Houston Center
Thu 10:29:37 AM 29.0142 -96.3892 197° South 365 420 31,900  Level Houston Center
Thu 10:30:39 AM 28.9161 -96.4233 197° South 366 421 31,900  Level Houston Center
Thu 10:31:41 AM 28.8183 -96.4575 197° South 367 422 31,900  Level Houston Center
Thu 10:32:42 AM 28.7194 -96.4911 197° South 368 423 31,900  Level Houston Center
Thu 10:33:44 AM 28.6206 -96.5244 196° South 369 425 31,900  Level Houston Center
Thu 10:34:46 AM 28.5222 -96.5583 197° South 369 425 31,900  Level Houston Center
Thu 10:35:48 AM 28.4033 -96.5992 197° South 370 426 31,900  Level Houston Center
Thu 10:36:50 AM 28.3058 -96.6322 197° South 367 422 31,900  Level Houston Center
Thu 10:37:52 AM 28.2067 -96.6642 196° South 369 425 31,900  Level Houston Center
Thu 10:38:54 AM 28.1081 -96.6975 197° South 368 423 31,900  Level Houston Center
Thu 10:39:56 AM 28.0097 -96.7317 197° South 370 426 31,900  Level Houston Center
Thu 10:40:58 AM 27.9111 -96.7664 197° South 369 425 31,900  Level Houston Center
Thu 10:42:00 AM 27.8125 -96.7972 195° South 369 425 31,900  Level Houston Center
Thu 10:43:02 AM 27.6942 -96.8372 197° South 370 426 31,900  Level Houston Center
Thu 10:44:04 AM 27.5956 -96.8711 197° South 370 426 31,900  Level Houston Center
Thu 10:45:06 AM 27.4964 -96.9050 197° South 370 426 31,900  Level Houston Center
Thu 10:46:07 AM 27.4031 -96.9356 196° South 370 426 31,900  Level Houston Center
Thu 10:47:09 AM 27.2831 -96.9747 196° South 372 428 31,900  Level Houston Center
Thu 10:48:11 AM 27.1836 -97.0089 197° South 373 429 31,900 -242 Level Houston Center
Thu 10:49:13 AM 27.0836 -97.0411 196° South 373 429 31,400 -1,548 Descending Houston Center
Thu 10:50:15 AM 26.9867 -97.0728 196° South 367 422 28,700 -3,339 Descending Houston Center
Thu 10:51:17 AM 26.8953 -97.1061 198° South 353 406 24,500 -4,533 Descending Houston Center
Thu 10:51:45 AM 26.8397 -97.1272 199° South 354 407 21,900 -4,161 Descending Houston Center
Thu 10:52:19 AM 26.8008 -97.1408 197° South 354 407 20,200 -3,882 Descending Houston Center
Thu 10:53:10 AM 26.7061 -97.1739 197° South 350 403 16,400 -3,712 Descending Houston Center
Thu 10:54:17 AM 26.6067 -97.1692 178° South 333 383 12,900 -2,731 Descending Houston Center
Thu 10:55:24 AM 26.4989 -97.1653 178° South 336 387 10,300 -1,983 Descending Houston Center
Thu 10:56:18 AM 26.4342 -97.1719 185° South 293 337 8,900 -1,817 Descending Houston Center
Thu 10:57:13 AM 26.3614 -97.1797 185° South 279 321 7,000 -1,606 Descending Houston Center
Thu 10:57:29 AM 26.3419 -97.1811 184° South 286 329 7,000 -1,574 Level Houston Center
Thu 10:58:14 AM 26.2886 -97.1872 186° South 271 312 5,400 -387 Descending Houston Center
Thu 10:58:31 AM 26.2758 -97.1864 177° South 282 325 6,600 -1,869 Climbing Houston Center
Thu 10:59:15 AM 26.2058 -97.2011 191° South 273 314 3,500 -2,077 Descending Houston Center
Thu 11:00:15 AM 26.1292 -97.2117 187° South 278 320 3,000 -248 Descending Houston Center
Thu 11:01:16 AM 26.0592 -97.2258 190° South 265 305 3,000  Level Houston Center
Thu 11:02:17 AM 25.9931 -97.2372 189° South 244 281 3,000  Level Houston Center
Thu 11:03:18 AM 25.9269 -97.2486 189° South 239 275 3,000  Level Houston Center
Thu 11:04:25 AM 25.8506 -97.2614 189° South 241 277 3,000 -469 Level Houston Center
Thu 11:06:00 AM 25.9000 -97.4167 210° Southwest  Level FlightAware Approximate
Thu 11:07:21 AM 25.8486 -97.3758 210° Southwest 169 194 1,100  Level Houston Center
Thu 11:09:00 AM 25.9068 -97.4258 322° Northwest  Level Estimated

Login

Don't have an account? Register now (free) for customized features, flight alerts, and more!